Time;durP1;ratioP1;P1;durP2;ratioP2;P2;SDS_P1;SDS_P2;PMS_P1;PMS_P2;Temp;Humidity;BMP_temperature;BMP_pressure;BME280_temperature;BME280_humidity;BME280_pressure;Samples;Min_cycle;Max_cycle;Signal;HPM_P1;HPM_P2
2021/12/29 00:01:37;;;;;;;81.28;19.98;;;6.80;99.90;;;;;;5094655;27;20088;-87
2021/12/29 00:04:03;;;;;;;90.18;19.70;;;6.80;99.90;;;;;;5112612;27;20039;-86
2021/12/29 00:06:28;;;;;;;109.57;21.27;;;6.80;99.90;;;;;;5099814;27;20042;-86
2021/12/29 00:08:55;;;;;;;93.15;18.65;;;6.80;99.90;;;;;;5115829;27;20441;-86
2021/12/29 00:11:22;;;;;;;78.10;17.67;;;6.80;99.90;;;;;;5127116;27;20394;-87
2021/12/29 00:13:47;;;;;;;99.93;19.92;;;6.70;99.90;;;;;;5096350;27;20039;-87
2021/12/29 00:16:13;;;;;;;60.08;16.83;;;6.80;99.90;;;;;;5096836;27;20057;-86
2021/12/29 00:18:39;;;;;;;65.78;17.13;;;6.80;99.90;;;;;;5110640;27;20542;-87
2021/12/29 00:21:06;;;;;;;75.05;17.55;;;6.70;99.90;;;;;;5111621;27;20046;-87
2021/12/29 00:23:33;;;;;;;95.53;18.60;;;6.70;99.90;;;;;;5133627;27;20039;-88
2021/12/29 00:25:59;;;;;;;40.80;12.80;;;6.70;99.90;;;;;;5094457;27;20047;-87
2021/12/29 00:28:25;;;;;;;39.70;12.40;;;6.80;99.90;;;;;;5115272;27;20489;-87
2021/12/29 00:30:51;;;;;;;41.17;12.38;;;6.70;99.90;;;;;;5133314;27;20046;-87
2021/12/29 00:33:17;;;;;;;44.80;12.65;;;6.70;99.90;;;;;;5098107;27;20452;-87
2021/12/29 00:35:44;;;;;;;61.22;14.80;;;6.70;99.90;;;;;;5116131;27;20038;-87
2021/12/29 00:38:10;;;;;;;52.92;13.75;;;6.70;99.90;;;;;;5096962;27;20141;-87
2021/12/29 00:40:38;;;;;;;62.80;13.85;;;6.70;99.90;;;;;;5132052;27;20055;-87
2021/12/29 00:43:05;;;;;;;45.05;12.43;;;6.70;99.90;;;;;;5115273;27;20045;-87
2021/12/29 00:45:37;;;;;;;56.75;12.75;;;6.70;99.90;;;;;;5116750;27;20058;-87
2021/12/29 00:48:05;;;;;;;45.28;11.60;;;6.70;99.90;;;;;;5129367;27;20462;-87
2021/12/29 00:50:33;;;;;;;53.10;12.07;;;6.70;99.90;;;;;;5132516;27;20103;-87
2021/12/29 00:52:59;;;;;;;42.10;10.90;;;6.70;99.90;;;;;;5115197;27;20035;-88
2021/12/29 00:55:25;;;;;;;43.85;11.05;;;6.70;99.90;;;;;;5132653;27;20051;-87
2021/12/29 00:57:51;;;;;;;48.50;11.43;;;6.70;99.90;;;;;;5129182;27;20103;-87
2021/12/29 01:00:21;;;;;;;46.03;11.98;;;6.70;99.90;;;;;;5083823;27;20038;-86
2021/12/29 01:02:48;;;;;;;38.78;10.15;;;6.70;99.90;;;;;;5130410;27;20406;-86
2021/12/29 01:05:15;;;;;;;37.05;10.23;;;6.70;99.90;;;;;;5094768;28;20043;-86
2021/12/29 01:07:44;;;;;;;36.22;10.05;;;6.80;99.90;;;;;;5122365;27;20046;-87
2021/12/29 01:10:11;;;;;;;35.08;10.05;;;6.70;99.90;;;;;;5136532;27;20050;-86
2021/12/29 01:12:38;;;;;;;47.55;12.05;;;6.70;99.90;;;;;;5136693;27;20047;-86
2021/12/29 01:15:05;;;;;;;55.17;12.50;;;6.70;99.90;;;;;;5119562;27;20050;-86
2021/12/29 01:17:31;;;;;;;69.13;13.52;;;6.70;99.90;;;;;;5135729;27;20046;-86
2021/12/29 01:19:58;;;;;;;64.50;15.10;;;6.70;99.90;;;;;;5096491;27;20100;-86
2021/12/29 01:22:24;;;;;;;66.70;13.82;;;6.70;99.90;;;;;;5136291;27;20475;-86
2021/12/29 01:24:50;;;;;;;70.10;14.90;;;6.70;99.90;;;;;;5118873;27;20046;-86
2021/12/29 01:27:16;;;;;;;86.90;16.40;;;6.70;99.90;;;;;;5119089;27;20052;-86
2021/12/29 01:29:43;;;;;;;84.03;15.13;;;6.80;99.90;;;;;;5117708;27;20088;-86
2021/12/29 01:32:09;;;;;;;73.35;14.55;;;6.80;99.90;;;;;;5135204;27;20042;-86
2021/12/29 01:34:35;;;;;;;99.20;16.25;;;6.70;99.90;;;;;;5118811;27;20039;-86
2021/12/29 01:37:02;;;;;;;95.78;16.33;;;6.80;99.90;;;;;;5135394;27;20051;-86
2021/12/29 01:39:27;;;;;;;99.35;15.48;;;6.80;99.90;;;;;;5134648;27;20040;-85
2021/12/29 01:41:57;;;;;;;99.45;17.45;;;6.80;99.90;;;;;;5135313;27;20058;-86
2021/12/29 01:44:25;;;;;;;125.45;18.58;;;6.80;99.90;;;;;;5118695;27;20119;-85
2021/12/29 01:46:53;;;;;;;107.28;17.05;;;6.80;99.90;;;;;;5135985;27;20535;-87
2021/12/29 01:49:19;;;;;;;106.15;17.85;;;6.90;99.90;;;;;;5118642;27;20373;-87
2021/12/29 01:51:59;;;;;;;80.05;14.52;;;6.90;99.90;;;;;;5084730;27;20107;-86
2021/12/29 01:54:25;;;;;;;126.70;18.08;;;6.80;99.90;;;;;;5118417;27;20079;-87
2021/12/29 01:56:57;;;;;;;140.45;20.13;;;6.90;99.90;;;;;;5081424;27;20079;-87
2021/12/29 01:59:25;;;;;;;148.75;20.27;;;6.90;99.90;;;;;;5134691;27;20126;-86
2021/12/29 02:01:52;;;;;;;136.20;20.63;;;6.90;99.90;;;;;;5112604;27;20050;-87
2021/12/29 02:04:18;;;;;;;165.18;21.95;;;6.90;99.90;;;;;;5112913;27;20046;-86
2021/12/29 02:06:45;;;;;;;165.63;20.55;;;7.00;99.90;;;;;;5109121;27;20092;-86
2021/12/29 02:09:11;;;;;;;130.05;20.38;;;6.90;99.90;;;;;;5118975;27;20137;-87
2021/12/29 02:11:38;;;;;;;171.27;22.33;;;7.00;99.90;;;;;;5103972;27;20074;-86
2021/12/29 02:14:05;;;;;;;131.85;19.35;;;7.00;99.90;;;;;;5133330;27;20050;-86
2021/12/29 02:16:32;;;;;;;189.85;22.25;;;7.00;99.90;;;;;;5118814;27;20057;-87
2021/12/29 02:19:01;;;;;;;148.10;18.55;;;7.00;99.90;;;;;;5097356;27;20043;-87
2021/12/29 02:21:29;;;;;;;139.20;19.05;;;7.00;99.90;;;;;;5111346;27;20089;-87
2021/12/29 02:26:27;;;;;;;117.05;16.55;;;7.10;99.90;;;;;;5118985;27;20050;-86
2021/12/29 02:28:55;;;;;;;132.55;17.33;;;7.00;99.90;;;;;;5118358;27;20447;-86
2021/12/29 02:31:22;;;;;;;96.55;15.13;;;7.10;99.90;;;;;;5135607;27;20114;-86
2021/12/29 02:33:48;;;;;;;94.00;14.40;;;7.10;99.90;;;;;;5091280;27;20036;-87
2021/12/29 02:36:18;;;;;;;125.93;15.07;;;7.10;99.90;;;;;;5113157;27;20043;-86
2021/12/29 02:38:48;;;;;;;104.55;13.98;;;7.10;99.90;;;;;;5115018;27;20065;-86
2021/12/29 02:41:15;;;;;;;93.40;13.40;;;7.10;99.90;;;;;;5108528;27;20039;-86
2021/12/29 02:43:41;;;;;;;86.70;11.23;;;7.10;99.90;;;;;;5126663;27;20449;-86
2021/12/29 02:46:11;;;;;;;66.00;11.55;;;7.10;99.90;;;;;;5137009;27;20069;-86
2021/12/29 02:48:46;;;;;;;82.53;12.25;;;7.10;99.90;;;;;;5136065;27;20038;-86
2021/12/29 02:51:12;;;;;;;62.28;10.98;;;7.10;99.90;;;;;;5096953;27;20070;-87
2021/12/29 02:53:37;;;;;;;96.07;12.52;;;7.10;99.90;;;;;;5099845;27;20100;-86
2021/12/29 02:56:04;;;;;;;79.68;11.40;;;7.10;99.90;;;;;;5121111;27;20096;-86
2021/12/29 02:58:34;;;;;;;79.25;11.73;;;7.10;99.90;;;;;;5100591;27;20046;-86
2021/12/29 03:01:04;;;;;;;57.22;11.52;;;7.20;99.90;;;;;;5101416;27;20062;-86
2021/12/29 03:03:30;;;;;;;78.43;11.80;;;7.20;99.90;;;;;;5135211;27;20060;-86
2021/12/29 03:05:57;;;;;;;75.82;12.10;;;7.20;99.90;;;;;;5134895;27;20072;-86
2021/12/29 03:08:23;;;;;;;62.88;11.73;;;7.20;99.90;;;;;;5116507;27;20050;-85
2021/12/29 03:10:53;;;;;;;82.07;13.10;;;7.30;99.90;;;;;;5110984;27;20424;-87
2021/12/29 03:13:28;;;;;;;76.88;12.27;;;7.20;99.90;;;;;;5113025;27;20096;-85
2021/12/29 03:15:55;;;;;;;60.83;11.88;;;7.30;99.90;;;;;;5107373;27;20043;-85
2021/12/29 03:18:21;;;;;;;64.68;12.20;;;7.20;99.90;;;;;;5134835;27;20511;-86
2021/12/29 03:20:47;;;;;;;72.63;12.68;;;7.30;99.90;;;;;;5135638;27;20050;-85
2021/12/29 03:23:13;;;;;;;91.80;14.23;;;7.30;99.90;;;;;;5134007;27;20184;-86
2021/12/29 03:25:40;;;;;;;93.45;13.98;;;7.30;99.90;;;;;;5134888;27;20037;-86
2021/12/29 03:28:06;;;;;;;85.97;15.00;;;7.30;99.90;;;;;;5133045;27;20058;-88
2021/12/29 03:30:39;;;;;;;81.97;14.80;;;7.30;99.90;;;;;;5135140;27;20042;-86
2021/12/29 03:33:07;;;;;;;97.65;15.50;;;7.40;99.90;;;;;;5134748;27;20407;-90
2021/12/29 03:35:40;;;;;;;80.50;15.70;;;7.30;99.90;;;;;;5134414;27;20042;-87
2021/12/29 03:38:09;;;;;;;90.10;16.55;;;7.40;99.90;;;;;;5133482;27;20129;-87
2021/12/29 03:40:36;;;;;;;91.45;17.58;;;7.30;99.90;;;;;;5134276;27;20046;-86
2021/12/29 03:43:03;;;;;;;84.93;16.00;;;7.40;99.90;;;;;;5116892;27;20047;-86
2021/12/29 03:45:29;;;;;;;107.93;18.17;;;7.40;99.90;;;;;;5113549;27;20047;-86
2021/12/29 03:47:55;;;;;;;83.22;16.75;;;7.40;99.90;;;;;;5117138;27;20077;-87
2021/12/29 03:50:21;;;;;;;107.20;19.45;;;7.40;99.90;;;;;;5097545;27;20076;-87
2021/12/29 03:52:47;;;;;;;102.22;20.30;;;7.50;99.90;;;;;;5107851;27;20117;-88
2021/12/29 03:55:13;;;;;;;102.53;20.63;;;7.50;99.90;;;;;;5116416;27;20042;-87
2021/12/29 03:57:41;;;;;;;91.22;18.85;;;7.50;99.90;;;;;;5115383;27;20074;-87
2021/12/29 04:00:11;;;;;;;89.53;20.42;;;7.40;99.90;;;;;;5100062;27;20415;-87
2021/12/29 04:02:37;;;;;;;122.75;23.02;;;7.50;99.90;;;;;;5133368;27;20030;-87
2021/12/29 04:05:04;;;;;;;94.40;21.23;;;7.50;99.90;;;;;;5116670;27;20471;-86
2021/12/29 04:07:31;;;;;;;132.82;26.70;;;7.50;99.90;;;;;;5133658;27;20053;-87
2021/12/29 04:09:57;;;;;;;104.25;23.65;;;7.50;99.90;;;;;;5132114;27;20047;-87
2021/12/29 04:12:23;;;;;;;92.88;22.80;;;7.50;99.90;;;;;;5115668;27;20042;-87
2021/12/29 04:14:49;;;;;;;85.75;21.42;;;7.50;99.90;;;;;;5116799;27;20038;-87
2021/12/29 04:17:18;;;;;;;97.13;22.45;;;7.50;99.90;;;;;;5076054;27;20058;-88
2021/12/29 04:22:30;;;;;;;131.45;24.50;;;7.50;99.90;;;;;;5133155;27;20061;-87
2021/12/29 04:24:57;;;;;;;91.20;21.15;;;7.50;99.90;;;;;;5116344;27;20053;-88
2021/12/29 04:27:24;;;;;;;118.95;26.05;;;7.60;99.90;;;;;;5095036;27;20039;-87
2021/12/29 04:29:50;;;;;;;102.32;23.58;;;7.50;99.90;;;;;;5097347;27;20047;-87
2021/12/29 04:32:16;;;;;;;81.57;21.92;;;7.50;99.90;;;;;;5117053;27;20163;-87
2021/12/29 04:34:42;;;;;;;82.75;22.42;;;7.60;99.90;;;;;;5116800;27;20117;-86
2021/12/29 04:37:08;;;;;;;93.53;23.90;;;7.60;99.90;;;;;;5100336;27;20050;-86
2021/12/29 04:39:33;;;;;;;92.85;23.20;;;7.60;99.90;;;;;;5116665;27;20034;-86
2021/12/29 04:41:59;;;;;;;111.97;24.60;;;7.60;99.90;;;;;;5086784;27;20034;-86
2021/12/29 04:44:25;;;;;;;108.65;24.00;;;7.50;99.90;;;;;;5118474;27;20035;-86
2021/12/29 04:46:51;;;;;;;106.50;24.50;;;7.60;99.90;;;;;;5138009;27;20038;-87
2021/12/29 04:49:23;;;;;;;78.72;22.33;;;7.60;99.90;;;;;;5118201;27;20503;-88
2021/12/29 04:52:02;;;;;;;91.82;23.45;;;7.50;99.90;;;;;;5099001;27;20099;-87
2021/12/29 04:54:27;;;;;;;84.22;22.58;;;7.60;99.90;;;;;;5120243;27;20038;-87
2021/12/29 04:56:55;;;;;;;90.20;24.20;;;7.50;99.90;;;;;;5137330;27;20046;-87
2021/12/29 04:59:21;;;;;;;101.28;24.08;;;7.60;99.90;;;;;;5119254;27;20415;-86
2021/12/29 05:01:47;;;;;;;76.30;22.63;;;7.60;99.90;;;;;;5102812;27;20038;-87
2021/12/29 05:04:20;;;;;;;75.38;21.10;;;7.60;99.90;;;;;;5137319;27;20043;-87
2021/12/29 05:09:30;;;;;;;72.88;19.40;;;7.60;99.90;;;;;;5118763;27;20047;-88
2021/12/29 05:11:59;;;;;;;70.97;20.15;;;7.60;99.90;;;;;;5085815;27;20511;-88
2021/12/29 05:14:25;;;;;;;71.63;19.10;;;7.70;99.90;;;;;;5118598;27;20123;-87
2021/12/29 05:16:50;;;;;;;76.35;20.70;;;7.60;99.90;;;;;;5119858;27;20086;-88
2021/12/29 05:19:16;;;;;;;86.90;22.60;;;7.60;99.90;;;;;;5119939;27;20118;-86
2021/12/29 05:21:42;;;;;;;73.30;19.45;;;7.60;99.90;;;;;;5115617;27;20051;-88
2021/12/29 05:24:08;;;;;;;87.03;21.10;;;7.60;99.90;;;;;;5111820;27;20500;-86
2021/12/29 05:26:35;;;;;;;70.07;19.77;;;7.60;99.90;;;;;;5113161;27;20534;-87
2021/12/29 05:29:02;;;;;;;62.08;17.77;;;7.70;99.90;;;;;;5132091;27;20514;-87
2021/12/29 05:31:28;;;;;;;80.88;20.38;;;7.60;99.90;;;;;;5132370;27;20061;-87
2021/12/29 05:33:55;;;;;;;90.28;21.90;;;7.60;99.90;;;;;;5132033;27;20164;-88
2021/12/29 05:36:20;;;;;;;66.03;19.10;;;7.60;99.90;;;;;;5116079;27;20087;-87
2021/12/29 05:38:46;;;;;;;86.05;20.05;;;7.70;99.90;;;;;;5115155;27;20043;-88
2021/12/29 05:41:12;;;;;;;83.03;21.33;;;7.60;99.90;;;;;;5116124;27;20135;-87
2021/12/29 05:43:38;;;;;;;76.25;20.23;;;7.60;99.90;;;;;;5132030;27;20129;-87
2021/12/29 05:46:03;;;;;;;86.50;21.42;;;7.70;99.90;;;;;;5083305;27;20050;-87
2021/12/29 05:48:29;;;;;;;80.30;20.60;;;7.60;99.90;;;;;;5133188;27;20043;-88
2021/12/29 05:50:55;;;;;;;79.90;21.52;;;7.60;99.90;;;;;;5132594;27;20035;-87
2021/12/29 05:53:21;;;;;;;82.03;21.50;;;7.70;99.90;;;;;;5099750;27;20065;-87
2021/12/29 05:55:47;;;;;;;65.47;19.83;;;7.60;99.90;;;;;;5112871;27;20055;-88
2021/12/29 05:58:13;;;;;;;76.10;20.48;;;7.60;99.90;;;;;;5133238;27;20045;-87
2021/12/29 06:00:40;;;;;;;55.47;18.73;;;7.60;99.90;;;;;;5109500;27;20031;-87
2021/12/29 06:03:06;;;;;;;66.82;19.95;;;7.60;99.90;;;;;;5112353;27;20047;-88
2021/12/29 06:05:32;;;;;;;76.00;19.92;;;7.60;99.90;;;;;;5132334;27;20078;-87
2021/12/29 06:07:58;;;;;;;82.93;22.38;;;7.60;99.90;;;;;;5115472;27;20090;-87
2021/12/29 06:10:24;;;;;;;66.07;20.77;;;7.60;99.90;;;;;;5110785;28;20040;-87
2021/12/29 06:12:50;;;;;;;77.95;20.98;;;7.70;99.90;;;;;;5076274;28;20058;-86
2021/12/29 06:15:15;;;;;;;61.55;18.33;;;7.60;99.90;;;;;;5108715;27;20123;-84
2021/12/29 06:17:41;;;;;;;80.55;21.92;;;7.60;99.90;;;;;;5113233;27;20043;-84
2021/12/29 06:20:10;;;;;;;91.60;21.15;;;7.70;99.90;;;;;;5098861;27;20039;-86
2021/12/29 06:22:37;;;;;;;85.78;21.40;;;7.70;99.90;;;;;;5097470;28;20493;-84
2021/12/29 06:25:04;;;;;;;80.78;19.95;;;7.50;99.90;;;;;;5112485;28;20191;-85
2021/12/29 06:27:31;;;;;;;94.75;21.25;;;7.60;99.90;;;;;;5075650;28;20425;-89
2021/12/29 06:29:57;;;;;;;69.07;18.70;;;7.60;99.90;;;;;;5094685;28;20052;-87
2021/12/29 06:32:23;;;;;;;93.38;20.48;;;7.60;99.90;;;;;;5108570;28;20054;-85
2021/12/29 06:34:49;;;;;;;79.80;19.33;;;7.60;99.90;;;;;;5075913;28;20114;-84
2021/12/29 06:37:15;;;;;;;96.40;22.98;;;7.60;99.90;;;;;;5110506;28;20036;-88
2021/12/29 06:39:43;;;;;;;84.35;21.02;;;7.60;99.90;;;;;;5089919;28;20048;-87
2021/12/29 06:42:09;;;;;;;85.63;21.33;;;7.60;99.90;;;;;;5107818;28;20040;-87
2021/12/29 06:44:36;;;;;;;78.53;20.88;;;7.70;99.90;;;;;;5109425;28;20047;-87
2021/12/29 06:47:02;;;;;;;86.55;21.65;;;7.70;99.90;;;;;;5093087;28;20070;-87
2021/12/29 06:49:28;;;;;;;84.53;21.15;;;7.60;99.90;;;;;;5094101;28;20048;-86
2021/12/29 06:51:54;;;;;;;72.93;18.52;;;7.60;99.90;;;;;;5066598;28;20054;-86
2021/12/29 06:54:19;;;;;;;60.47;16.80;;;7.60;99.90;;;;;;5110163;28;20528;-82
2021/12/29 06:56:45;;;;;;;65.18;17.67;;;7.60;99.90;;;;;;5072123;28;20177;-83
2021/12/29 06:59:11;;;;;;;80.95;20.20;;;7.60;99.90;;;;;;5103106;28;20047;-88
2021/12/29 07:01:36;;;;;;;70.55;18.58;;;7.60;99.90;;;;;;5073433;28;20075;-88
2021/12/29 07:04:03;;;;;;;69.57;18.77;;;7.70;99.90;;;;;;5091891;28;20040;-88
2021/12/29 07:06:29;;;;;;;80.85;18.50;;;7.60;99.90;;;;;;5093038;28;20496;-87
2021/12/29 07:08:55;;;;;;;58.20;16.63;;;7.70;99.90;;;;;;5075750;28;20097;-88
2021/12/29 07:11:20;;;;;;;73.30;18.33;;;7.60;99.90;;;;;;5077210;28;20095;-87
2021/12/29 07:13:46;;;;;;;61.70;16.83;;;7.70;99.90;;;;;;5110583;28;20048;-87
2021/12/29 07:16:13;;;;;;;82.10;19.25;;;7.70;99.90;;;;;;5077299;28;20093;-87
2021/12/29 07:18:39;;;;;;;89.47;20.50;;;7.70;99.90;;;;;;5110928;28;20040;-86
2021/12/29 07:21:04;;;;;;;97.70;21.83;;;7.70;99.90;;;;;;5096958;27;20058;-88
2021/12/29 07:23:30;;;;;;;67.90;17.40;;;7.70;99.90;;;;;;5114344;27;20066;-86
2021/12/29 07:25:56;;;;;;;59.05;17.13;;;7.70;99.90;;;;;;5113811;27;20404;-87
2021/12/29 07:28:22;;;;;;;84.10;19.95;;;7.60;99.90;;;;;;5097128;27;20051;-87
2021/12/29 07:30:48;;;;;;;58.55;15.98;;;7.70;99.90;;;;;;5096804;27;20046;-86
2021/12/29 07:33:14;;;;;;;72.63;17.40;;;7.70;99.90;;;;;;5096297;27;20043;-87
2021/12/29 07:35:39;;;;;;;73.45;17.02;;;7.70;99.90;;;;;;5113428;27;20511;-83
2021/12/29 07:38:05;;;;;;;85.10;18.17;;;7.70;99.90;;;;;;5126160;27;20051;-84
2021/12/29 07:40:31;;;;;;;65.60;17.05;;;7.70;99.90;;;;;;5112293;27;20046;-83
2021/12/29 07:42:57;;;;;;;87.38;18.50;;;7.70;99.90;;;;;;5129964;27;20116;-84
2021/12/29 07:45:25;;;;;;;64.15;16.10;;;7.70;99.90;;;;;;5128624;27;20131;-85
2021/12/29 07:47:51;;;;;;;72.90;17.90;;;7.70;99.90;;;;;;5088190;27;20051;-84
2021/12/29 07:50:19;;;;;;;62.60;15.40;;;7.80;99.90;;;;;;5111917;27;20055;-85
2021/12/29 07:52:48;;;;;;;88.50;18.25;;;7.70;99.90;;;;;;5128304;27;20086;-85
2021/12/29 07:55:18;;;;;;;78.82;18.02;;;7.80;99.90;;;;;;5113401;27;20111;-83
2021/12/29 07:57:44;;;;;;;76.20;17.98;;;7.70;99.90;;;;;;5094419;27;20055;-86
2021/12/29 08:00:12;;;;;;;71.85;17.15;;;7.80;99.90;;;;;;5126585;27;20050;-83
2021/12/29 08:02:39;;;;;;;88.38;18.60;;;7.70;99.90;;;;;;5125269;27;20039;-83
2021/12/29 08:05:08;;;;;;;87.20;20.52;;;7.70;99.90;;;;;;5122308;27;20114;-83
2021/12/29 08:07:34;;;;;;;78.20;19.23;;;7.70;99.90;;;;;;5130640;27;20035;-83
2021/12/29 08:10:00;;;;;;;95.38;26.42;;;7.80;99.90;;;;;;5100127;27;20138;-82
2021/12/29 08:12:26;;;;;;;102.95;25.55;;;7.80;99.90;;;;;;5116392;27;20145;-84
2021/12/29 08:14:52;;;;;;;134.25;31.33;;;7.70;99.90;;;;;;5115508;27;20043;-83
2021/12/29 08:17:18;;;;;;;165.43;28.42;;;7.80;99.90;;;;;;5111627;28;20057;-82
2021/12/29 08:19:44;;;;;;;133.40;27.40;;;7.80;99.90;;;;;;5129700;27;20061;-83
2021/12/29 08:22:11;;;;;;;124.93;25.10;;;7.80;99.90;;;;;;5128815;27;20062;-83
2021/12/29 08:24:37;;;;;;;116.47;21.80;;;7.80;99.90;;;;;;5113363;27;20789;-83
2021/12/29 08:27:04;;;;;;;98.50;25.88;;;7.80;99.90;;;;;;5107641;28;20082;-83
2021/12/29 08:29:30;;;;;;;100.38;23.88;;;7.80;99.90;;;;;;5092739;27;20057;-83
2021/12/29 08:31:57;;;;;;;132.77;25.48;;;7.80;99.90;;;;;;5108290;28;20082;-84
2021/12/29 08:34:24;;;;;;;127.43;23.70;;;7.80;99.90;;;;;;5126456;28;20039;-83
2021/12/29 08:36:50;;;;;;;137.82;24.42;;;7.80;99.90;;;;;;5110943;28;20043;-86
2021/12/29 08:39:18;;;;;;;118.95;23.38;;;7.80;99.90;;;;;;5104517;28;20057;-83
2021/12/29 08:41:48;;;;;;;126.93;23.23;;;7.80;99.90;;;;;;5096693;28;20075;-84
2021/12/29 08:44:14;;;;;;;106.57;20.15;;;7.80;99.90;;;;;;5119355;28;20507;-84
2021/12/29 08:46:40;;;;;;;138.57;24.35;;;7.80;99.90;;;;;;5122228;28;20050;-83
2021/12/29 08:49:06;;;;;;;131.05;23.13;;;7.80;99.90;;;;;;5121675;28;20055;-84
2021/12/29 08:51:32;;;;;;;97.55;20.08;;;7.90;99.90;;;;;;5107085;28;20442;-84
2021/12/29 08:53:59;;;;;;;89.45;18.30;;;7.80;99.90;;;;;;5085151;28;20040;-83
2021/12/29 08:56:26;;;;;;;112.25;21.73;;;7.90;99.90;;;;;;5106148;28;20070;-85
2021/12/29 08:58:53;;;;;;;134.32;24.02;;;7.90;99.90;;;;;;5090183;28;20121;-87
2021/12/29 09:01:20;;;;;;;98.10;18.35;;;7.90;99.90;;;;;;5103130;28;20122;-84
2021/12/29 09:03:48;;;;;;;120.82;20.95;;;7.90;99.90;;;;;;5112545;28;20484;-84
2021/12/29 09:06:15;;;;;;;103.63;19.58;;;7.90;99.90;;;;;;5128913;28;20096;-83
2021/12/29 09:08:41;;;;;;;102.32;19.00;;;7.90;99.90;;;;;;5109590;28;20054;-83
2021/12/29 09:11:07;;;;;;;104.60;19.58;;;7.90;99.90;;;;;;5117180;28;20043;-83
2021/12/29 09:13:33;;;;;;;93.82;19.08;;;7.90;99.90;;;;;;5106095;28;20063;-84
2021/12/29 09:15:59;;;;;;;109.85;19.33;;;7.90;99.90;;;;;;5108428;28;20125;-83
2021/12/29 09:18:27;;;;;;;107.90;19.27;;;8.00;99.90;;;;;;5087290;28;20134;-84
2021/12/29 09:20:53;;;;;;;120.72;20.52;;;8.00;99.90;;;;;;5110624;27;20495;-88
2021/12/29 09:23:19;;;;;;;101.95;18.83;;;8.00;99.90;;;;;;5107988;27;20082;-84
2021/12/29 09:25:46;;;;;;;114.20;20.13;;;8.00;99.90;;;;;;5098911;27;20447;-84
2021/12/29 09:28:16;;;;;;;133.73;20.88;;;8.00;99.90;;;;;;5077437;27;20067;-85
2021/12/29 09:30:44;;;;;;;119.85;19.85;;;8.00;99.90;;;;;;5116713;27;20089;-84
2021/12/29 09:33:11;;;;;;;100.63;18.45;;;8.00;99.90;;;;;;5134563;27;20403;-86
2021/12/29 09:35:37;;;;;;;90.90;16.88;;;8.00;99.90;;;;;;5118452;27;20053;-84
2021/12/29 09:38:05;;;;;;;73.00;15.95;;;8.10;99.90;;;;;;5118996;27;20072;-84
2021/12/29 09:40:32;;;;;;;106.90;19.25;;;8.00;99.90;;;;;;5136616;27;20456;-83
2021/12/29 09:42:58;;;;;;;161.00;20.77;;;8.10;99.90;;;;;;5136637;27;20043;-83
2021/12/29 09:45:24;;;;;;;126.82;19.60;;;8.00;99.90;;;;;;5137595;27;20130;-84
2021/12/29 09:47:51;;;;;;;117.03;18.35;;;8.10;99.90;;;;;;5134303;27;20043;-84
2021/12/29 09:50:19;;;;;;;62.17;13.23;;;8.10;99.90;;;;;;5119021;27;20082;-84
2021/12/29 09:52:45;;;;;;;60.67;13.25;;;8.20;99.90;;;;;;5132862;27;20102;-84
2021/12/29 09:55:15;;;;;;;63.80;13.93;;;8.10;99.90;;;;;;5101704;27;20129;-84
2021/12/29 09:57:44;;;;;;;61.67;14.27;;;8.20;99.90;;;;;;5119295;27;20192;-83
2021/12/29 10:00:22;;;;;;;39.42;10.60;;;8.30;99.90;;;;;;5133969;27;20046;-85
2021/12/29 10:02:48;;;;;;;31.52;10.75;;;8.30;99.90;;;;;;5103773;27;20074;-85
2021/12/29 10:05:14;;;;;;;41.30;10.80;;;8.20;99.90;;;;;;5112572;27;20035;-82
2021/12/29 10:07:41;;;;;;;32.67;9.23;;;8.20;99.90;;;;;;5131228;27;20043;-83
2021/12/29 10:10:20;;;;;;;29.98;9.30;;;8.30;99.90;;;;;;5129598;27;20093;-84
2021/12/29 10:12:47;;;;;;;37.17;10.40;;;8.30;99.90;;;;;;5113128;27;20055;-84
2021/12/29 10:15:13;;;;;;;35.00;9.68;;;8.30;99.90;;;;;;5108464;27;20035;-84
2021/12/29 10:17:39;;;;;;;32.00;8.38;;;8.40;99.90;;;;;;5130675;27;20043;-84
2021/12/29 10:20:17;;;;;;;26.48;8.07;;;8.40;99.90;;;;;;5125916;27;20114;-84
2021/12/29 10:22:55;;;;;;;24.48;7.45;;;8.40;99.90;;;;;;5110834;28;20047;-84
2021/12/29 10:25:24;;;;;;;31.52;8.40;;;8.40;99.90;;;;;;5111654;28;20043;-84
2021/12/29 10:27:51;;;;;;;27.45;8.52;;;8.30;99.90;;;;;;5073142;28;20485;-85
2021/12/29 10:30:31;;;;;;;23.10;7.63;;;8.40;99.90;;;;;;5111920;28;20051;-85
2021/12/29 10:33:09;;;;;;;22.67;8.40;;;8.40;99.90;;;;;;5093132;28;20047;-84
2021/12/29 10:35:35;;;;;;;23.38;7.95;;;8.40;99.90;;;;;;5109704;28;20048;-85
2021/12/29 10:38:15;;;;;;;22.00;7.18;;;8.40;99.90;;;;;;5104695;28;20527;-89
2021/12/29 10:40:41;;;;;;;30.55;8.95;;;8.40;99.90;;;;;;5083719;28;20044;-85
2021/12/29 10:43:07;;;;;;;24.73;7.68;;;8.40;99.90;;;;;;5093958;28;20636;-87
2021/12/29 10:45:38;;;;;;;28.23;8.18;;;8.40;99.90;;;;;;5111642;28;20081;-85
2021/12/29 10:48:22;;;;;;;32.70;9.38;;;8.50;99.90;;;;;;5094176;28;20404;-85
2021/12/29 10:51:07;;;;;;;24.83;8.35;;;8.50;99.90;;;;;;5107455;28;20110;-85
2021/12/29 10:53:35;;;;;;;28.85;9.50;;;8.60;99.90;;;;;;5110862;28;20044;-85
2021/12/29 10:56:02;;;;;;;23.10;9.57;;;8.50;99.90;;;;;;5094259;28;20134;-87
2021/12/29 10:58:32;;;;;;;30.75;8.85;;;8.50;99.90;;;;;;5091914;28;20074;-85
2021/12/29 11:01:08;;;;;;;28.42;9.77;;;8.40;99.90;;;;;;5091080;28;20052;-85
2021/12/29 11:03:35;;;;;;;;;;;8.50;99.90;;;;;;5094141;28;20044;-84
2021/12/29 11:06:03;;;;;;;;;;;8.40;99.90;;;;;;5111159;28;19924;-85
2021/12/29 11:08:44;;;;;;;30.67;10.13;;;8.40;99.90;;;;;;5110643;28;19952;-85
2021/12/29 11:11:10;;;;;;;40.55;10.68;;;8.40;99.90;;;;;;5093021;28;20047;-85
2021/12/29 11:13:36;;;;;;;35.67;10.88;;;8.40;99.90;;;;;;5093161;28;20131;-86
2021/12/29 11:16:06;;;;;;;32.20;11.32;;;8.40;99.90;;;;;;5092390;28;20055;-87
2021/12/29 11:18:50;;;;;;;37.53;12.23;;;8.40;99.90;;;;;;5105354;28;20051;-90
2021/12/29 11:21:38;;;;;;;33.30;11.50;;;8.40;99.90;;;;;;5096111;27;20059;-84
2021/12/29 11:24:13;;;;;;;39.13;12.63;;;8.40;99.90;;;;;;5127411;27;20078;-84
2021/12/29 11:26:39;;;;;;;41.97;12.18;;;8.40;99.90;;;;;;5114752;27;20030;-83
2021/12/29 11:29:11;;;;;;;46.47;13.65;;;8.40;99.90;;;;;;5116269;27;20061;-86
2021/12/29 11:31:45;;;;;;;35.08;12.35;;;8.50;99.90;;;;;;5114115;27;20042;-83
2021/12/29 11:34:13;;;;;;;41.55;11.98;;;8.60;99.90;;;;;;5126903;27;20039;-84
2021/12/29 11:36:39;;;;;;;31.50;10.90;;;8.50;99.90;;;;;;5116787;27;20053;-85
2021/12/29 11:39:05;;;;;;;41.03;11.55;;;8.60;99.90;;;;;;5079552;27;20455;-85
2021/12/29 11:41:31;;;;;;;38.47;11.80;;;8.60;99.90;;;;;;5134397;27;20134;-85
2021/12/29 11:43:57;;;;;;;42.28;12.00;;;8.60;99.90;;;;;;5112080;27;20093;-86
2021/12/29 11:46:24;;;;;;;40.05;13.18;;;8.70;99.90;;;;;;5096555;27;20663;-85
2021/12/29 11:48:52;;;;;;;45.90;12.20;;;8.70;99.90;;;;;;5131776;27;20046;-84
2021/12/29 11:51:29;;;;;;;52.35;13.02;;;8.80;99.90;;;;;;5134080;27;20081;-84
2021/12/29 11:54:01;;;;;;;37.83;11.57;;;8.90;99.90;;;;;;5133547;27;20380;-85
2021/12/29 11:56:27;;;;;;;45.85;13.15;;;8.80;99.90;;;;;;5116338;27;20042;-85
2021/12/29 11:59:03;;;;;;;36.50;11.00;;;8.90;99.90;;;;;;5128573;27;20043;-85
2021/12/29 12:01:30;;;;;;;;;;;9.00;99.90;;;;;;5098185;27;20047;-84
2021/12/29 12:03:57;;;;;;;29.63;10.38;;;8.90;99.90;;;;;;5116617;27;19923;-80
2021/12/29 12:06:32;;;;;;;35.60;10.95;;;8.90;99.90;;;;;;5133210;27;20055;-83
2021/12/29 12:09:01;;;;;;;34.38;10.27;;;8.80;99.90;;;;;;5115287;27;20081;-81
2021/12/29 12:11:28;;;;;;;42.53;11.63;;;8.80;99.90;;;;;;5112930;27;20099;-83
2021/12/29 12:13:54;;;;;;;36.95;11.80;;;8.70;99.90;;;;;;5134333;27;20035;-83
2021/12/29 12:16:21;;;;;;;39.25;11.63;;;8.80;99.90;;;;;;5117346;27;20058;-83
2021/12/29 12:18:50;;;;;;;32.67;9.35;;;8.70;99.90;;;;;;5134196;27;20051;-84
2021/12/29 12:21:39;;;;;;;32.33;10.48;;;8.70;99.90;;;;;;5124890;27;20059;-84
2021/12/29 12:24:14;;;;;;;33.83;11.00;;;8.60;99.90;;;;;;5133390;27;20053;-83
2021/12/29 12:26:57;;;;;;;35.80;9.10;;;8.60;99.90;;;;;;5133810;27;20098;-82
2021/12/29 12:29:35;;;;;;;25.92;9.30;;;8.60;99.90;;;;;;5117457;27;20039;-83
2021/12/29 12:32:15;;;;;;;31.75;9.32;;;8.60;99.90;;;;;;5134085;27;20050;-83
2021/12/29 12:35:05;;;;;;;30.23;9.68;;;8.60;99.90;;;;;;5117051;27;20043;-84
2021/12/29 12:37:32;;;;;;;30.55;9.57;;;8.50;99.90;;;;;;5116540;27;20122;-83
2021/12/29 12:40:33;;;;;;;28.75;9.40;;;8.50;99.90;;;;;;5113115;27;20514;-83
2021/12/29 12:43:03;;;;;;;30.17;9.40;;;8.40;99.90;;;;;;5131683;27;20051;-83
2021/12/29 12:45:35;;;;;;;24.65;9.52;;;8.30;99.90;;;;;;5116785;27;20054;-84
2021/12/29 12:48:12;;;;;;;26.48;8.43;;;8.40;99.90;;;;;;5103965;28;20052;-84